sensor_id;sensor_type;location;lat;lon;timestamp;P1;durP1;ratioP1;P2;durP2;ratioP2
12118;SDS011;6123;48.864;9.200;2022-12-07T00:01:13;11.57;;;10.60;;
12118;SDS011;6123;48.864;9.200;2022-12-07T00:03:43;11.02;;;10.02;;
12118;SDS011;6123;48.864;9.200;2022-12-07T00:06:11;11.00;;;10.00;;
12118;SDS011;6123;48.864;9.200;2022-12-07T00:08:39;11.55;;;10.45;;
12118;SDS011;6123;48.864;9.200;2022-12-07T00:11:05;10.90;;;9.90;;
12118;SDS011;6123;48.864;9.200;2022-12-07T00:13:44;10.23;;;9.25;;
12118;SDS011;6123;48.864;9.200;2022-12-07T00:16:16;10.65;;;9.68;;
12118;SDS011;6123;48.864;9.200;2022-12-07T00:18:45;10.43;;;9.43;;
12118;SDS011;6123;48.864;9.200;2022-12-07T00:21:15;9.25;;;8.45;;
12118;SDS011;6123;48.864;9.200;2022-12-07T00:23:45;10.15;;;9.25;;
12118;SDS011;6123;48.864;9.200;2022-12-07T00:28:39;10.18;;;9.18;;
12118;SDS011;6123;48.864;9.200;2022-12-07T00:31:14;9.40;;;8.60;;
12118;SDS011;6123;48.864;9.200;2022-12-07T00:33:41;9.13;;;8.30;;
12118;SDS011;6123;48.864;9.200;2022-12-07T00:36:11;9.80;;;8.80;;
12118;SDS011;6123;48.864;9.200;2022-12-07T00:38:39;8.38;;;7.68;;
12118;SDS011;6123;48.864;9.200;2022-12-07T00:41:06;8.75;;;7.95;;
12118;SDS011;6123;48.864;9.200;2022-12-07T00:43:37;8.57;;;7.88;;
12118;SDS011;6123;48.864;9.200;2022-12-07T00:46:06;9.55;;;8.55;;
12118;SDS011;6123;48.864;9.200;2022-12-07T00:48:33;9.25;;;8.30;;
12118;SDS011;6123;48.864;9.200;2022-12-07T00:50:59;9.07;;;8.18;;
12118;SDS011;6123;48.864;9.200;2022-12-07T00:53:26;10.70;;;8.90;;
12118;SDS011;6123;48.864;9.200;2022-12-07T00:55:52;8.63;;;7.85;;
12118;SDS011;6123;48.864;9.200;2022-12-07T00:58:18;10.10;;;9.30;;
12118;SDS011;6123;48.864;9.200;2022-12-07T01:00:46;10.27;;;9.30;;
12118;SDS011;6123;48.864;9.200;2022-12-07T01:03:13;11.40;;;9.65;;
12118;SDS011;6123;48.864;9.200;2022-12-07T01:05:39;9.15;;;8.35;;
12118;SDS011;6123;48.864;9.200;2022-12-07T01:08:06;9.23;;;8.38;;
12118;SDS011;6123;48.864;9.200;2022-12-07T01:10:34;9.27;;;8.48;;
12118;SDS011;6123;48.864;9.200;2022-12-07T01:12:59;9.30;;;8.50;;
12118;SDS011;6123;48.864;9.200;2022-12-07T01:15:27;8.77;;;7.97;;
12118;SDS011;6123;48.864;9.200;2022-12-07T01:17:53;9.15;;;8.00;;
12118;SDS011;6123;48.864;9.200;2022-12-07T01:20:19;9.27;;;8.48;;
12118;SDS011;6123;48.864;9.200;2022-12-07T01:22:45;8.70;;;7.90;;
12118;SDS011;6123;48.864;9.200;2022-12-07T01:25:11;9.32;;;8.52;;
12118;SDS011;6123;48.864;9.200;2022-12-07T01:27:39;9.88;;;8.93;;
12118;SDS011;6123;48.864;9.200;2022-12-07T01:30:05;10.13;;;9.23;;
12118;SDS011;6123;48.864;9.200;2022-12-07T01:32:32;8.63;;;7.82;;
12118;SDS011;6123;48.864;9.200;2022-12-07T01:34:58;10.15;;;9.25;;
12118;SDS011;6123;48.864;9.200;2022-12-07T01:37:27;9.45;;;8.60;;
12118;SDS011;6123;48.864;9.200;2022-12-07T01:39:54;7.93;;;7.22;;
12118;SDS011;6123;48.864;9.200;2022-12-07T01:42:20;9.60;;;8.70;;
12118;SDS011;6123;48.864;9.200;2022-12-07T01:47:43;8.25;;;7.63;;
12118;SDS011;6123;48.864;9.200;2022-12-07T01:50:14;8.63;;;7.93;;
12118;SDS011;6123;48.864;9.200;2022-12-07T01:52:40;8.93;;;8.15;;
12118;SDS011;6123;48.864;9.200;2022-12-07T01:55:09;7.57;;;6.97;;
12118;SDS011;6123;48.864;9.200;2022-12-07T01:57:38;9.23;;;8.30;;
12118;SDS011;6123;48.864;9.200;2022-12-07T02:00:06;9.35;;;8.55;;
12118;SDS011;6123;48.864;9.200;2022-12-07T02:02:37;8.18;;;7.47;;
12118;SDS011;6123;48.864;9.200;2022-12-07T02:05:10;9.10;;;8.35;;
12118;SDS011;6123;48.864;9.200;2022-12-07T02:07:36;8.45;;;7.57;;
12118;SDS011;6123;48.864;9.200;2022-12-07T02:12:41;7.82;;;7.22;;
12118;SDS011;6123;48.864;9.200;2022-12-07T02:15:08;7.55;;;6.88;;
12118;SDS011;6123;48.864;9.200;2022-12-07T02:20:40;7.53;;;6.90;;
12118;SDS011;6123;48.864;9.200;2022-12-07T02:23:56;8.30;;;7.57;;
12118;SDS011;6123;48.864;9.200;2022-12-07T02:26:34;8.63;;;7.82;;
12118;SDS011;6123;48.864;9.200;2022-12-07T02:29:13;7.80;;;7.10;;
12118;SDS011;6123;48.864;9.200;2022-12-07T02:31:47;9.20;;;8.40;;
12118;SDS011;6123;48.864;9.200;2022-12-07T02:34:23;8.40;;;7.63;;
12118;SDS011;6123;48.864;9.200;2022-12-07T02:36:55;8.20;;;7.57;;
12118;SDS011;6123;48.864;9.200;2022-12-07T02:39:31;7.60;;;7.00;;
12118;SDS011;6123;48.864;9.200;2022-12-07T02:42:07;7.68;;;7.05;;
12118;SDS011;6123;48.864;9.200;2022-12-07T02:44:40;8.05;;;7.38;;
12118;SDS011;6123;48.864;9.200;2022-12-07T02:47:08;7.97;;;7.30;;
12118;SDS011;6123;48.864;9.200;2022-12-07T02:49:37;7.60;;;6.88;;
12118;SDS011;6123;48.864;9.200;2022-12-07T02:52:07;9.13;;;8.32;;
12118;SDS011;6123;48.864;9.200;2022-12-07T02:54:36;7.25;;;6.65;;
12118;SDS011;6123;48.864;9.200;2022-12-07T02:57:12;7.85;;;7.22;;
12118;SDS011;6123;48.864;9.200;2022-12-07T03:00:03;9.40;;;8.05;;
12118;SDS011;6123;48.864;9.200;2022-12-07T03:10:54;8.88;;;8.07;;
12118;SDS011;6123;48.864;9.200;2022-12-07T03:16:21;7.72;;;7.05;;
12118;SDS011;6123;48.864;9.200;2022-12-07T03:24:39;7.65;;;6.95;;
12118;SDS011;6123;48.864;9.200;2022-12-07T03:27:13;7.80;;;7.13;;
12118;SDS011;6123;48.864;9.200;2022-12-07T03:29:53;8.13;;;7.47;;
12118;SDS011;6123;48.864;9.200;2022-12-07T03:35:19;8.50;;;7.80;;
12118;SDS011;6123;48.864;9.200;2022-12-07T03:38:06;6.97;;;6.38;;
12118;SDS011;6123;48.864;9.200;2022-12-07T03:41:00;8.57;;;7.78;;
12118;SDS011;6123;48.864;9.200;2022-12-07T03:43:31;7.72;;;7.03;;
12118;SDS011;6123;48.864;9.200;2022-12-07T03:48:40;7.18;;;6.57;;
12118;SDS011;6123;48.864;9.200;2022-12-07T03:53:58;7.90;;;7.30;;
12118;SDS011;6123;48.864;9.200;2022-12-07T03:56:25;7.72;;;7.03;;
12118;SDS011;6123;48.864;9.200;2022-12-07T03:58:53;7.70;;;7.00;;
12118;SDS011;6123;48.864;9.200;2022-12-07T04:01:22;8.13;;;7.43;;
12118;SDS011;6123;48.864;9.200;2022-12-07T04:03:50;8.43;;;7.70;;
12118;SDS011;6123;48.864;9.200;2022-12-07T04:06:18;8.23;;;7.43;;
12118;SDS011;6123;48.864;9.200;2022-12-07T04:08:44;7.75;;;7.05;;
12118;SDS011;6123;48.864;9.200;2022-12-07T04:11:10;8.10;;;7.40;;
12118;SDS011;6123;48.864;9.200;2022-12-07T04:13:35;7.78;;;7.07;;
12118;SDS011;6123;48.864;9.200;2022-12-07T04:16:21;9.13;;;8.10;;
12118;SDS011;6123;48.864;9.200;2022-12-07T04:18:49;8.45;;;7.65;;
12118;SDS011;6123;48.864;9.200;2022-12-07T04:21:14;7.80;;;7.10;;
12118;SDS011;6123;48.864;9.200;2022-12-07T04:23:40;7.70;;;7.00;;
12118;SDS011;6123;48.864;9.200;2022-12-07T04:26:05;7.20;;;6.50;;
12118;SDS011;6123;48.864;9.200;2022-12-07T04:28:31;8.85;;;7.95;;
12118;SDS011;6123;48.864;9.200;2022-12-07T04:30:57;8.43;;;7.68;;
12118;SDS011;6123;48.864;9.200;2022-12-07T04:33:23;8.13;;;7.43;;
12118;SDS011;6123;48.864;9.200;2022-12-07T04:35:48;8.20;;;7.40;;
12118;SDS011;6123;48.864;9.200;2022-12-07T04:38:14;8.05;;;7.35;;
12118;SDS011;6123;48.864;9.200;2022-12-07T04:40:39;7.55;;;6.85;;
12118;SDS011;6123;48.864;9.200;2022-12-07T04:43:05;7.68;;;6.97;;
12118;SDS011;6123;48.864;9.200;2022-12-07T04:45:33;6.93;;;6.32;;
12118;SDS011;6123;48.864;9.200;2022-12-07T04:47:59;7.80;;;7.18;;
12118;SDS011;6123;48.864;9.200;2022-12-07T04:50:26;6.97;;;6.38;;
12118;SDS011;6123;48.864;9.200;2022-12-07T04:52:54;7.10;;;6.45;;
12118;SDS011;6123;48.864;9.200;2022-12-07T04:55:20;7.10;;;6.50;;
12118;SDS011;6123;48.864;9.200;2022-12-07T04:57:46;7.03;;;6.43;;
12118;SDS011;6123;48.864;9.200;2022-12-07T05:00:13;7.05;;;6.43;;
12118;SDS011;6123;48.864;9.200;2022-12-07T05:02:39;7.30;;;6.70;;
12118;SDS011;6123;48.864;9.200;2022-12-07T05:05:05;7.45;;;6.85;;
12118;SDS011;6123;48.864;9.200;2022-12-07T05:07:31;7.57;;;6.88;;
12118;SDS011;6123;48.864;9.200;2022-12-07T05:09:56;7.65;;;6.90;;
12118;SDS011;6123;48.864;9.200;2022-12-07T05:12:22;7.18;;;6.57;;
12118;SDS011;6123;48.864;9.200;2022-12-07T05:14:47;6.75;;;6.05;;
12118;SDS011;6123;48.864;9.200;2022-12-07T05:17:13;6.88;;;6.18;;
12118;SDS011;6123;48.864;9.200;2022-12-07T05:19:41;7.43;;;6.82;;
12118;SDS011;6123;48.864;9.200;2022-12-07T05:22:07;8.02;;;7.43;;
12118;SDS011;6123;48.864;9.200;2022-12-07T05:24:35;7.47;;;6.75;;
12118;SDS011;6123;48.864;9.200;2022-12-07T05:27:00;8.85;;;7.18;;
12118;SDS011;6123;48.864;9.200;2022-12-07T05:29:26;7.88;;;7.18;;
12118;SDS011;6123;48.864;9.200;2022-12-07T05:31:51;7.47;;;6.88;;
12118;SDS011;6123;48.864;9.200;2022-12-07T05:34:17;7.95;;;7.25;;
12118;SDS011;6123;48.864;9.200;2022-12-07T05:36:43;8.07;;;7.38;;
12118;SDS011;6123;48.864;9.200;2022-12-07T05:39:09;8.25;;;7.55;;
12118;SDS011;6123;48.864;9.200;2022-12-07T05:41:35;9.25;;;8.45;;
12118;SDS011;6123;48.864;9.200;2022-12-07T05:44:22;7.82;;;7.13;;
12118;SDS011;6123;48.864;9.200;2022-12-07T05:46:47;8.50;;;7.80;;
12118;SDS011;6123;48.864;9.200;2022-12-07T05:49:13;9.27;;;8.25;;
12118;SDS011;6123;48.864;9.200;2022-12-07T05:51:38;8.05;;;7.35;;
12118;SDS011;6123;48.864;9.200;2022-12-07T05:54:06;8.40;;;7.60;;
12118;SDS011;6123;48.864;9.200;2022-12-07T05:56:32;8.07;;;7.38;;
12118;SDS011;6123;48.864;9.200;2022-12-07T05:58:57;8.20;;;7.50;;
12118;SDS011;6123;48.864;9.200;2022-12-07T06:01:44;8.85;;;7.95;;
12118;SDS011;6123;48.864;9.200;2022-12-07T06:04:12;9.38;;;8.50;;
12118;SDS011;6123;48.864;9.200;2022-12-07T06:06:38;8.48;;;7.68;;
12118;SDS011;6123;48.864;9.200;2022-12-07T06:09:03;8.30;;;7.50;;
12118;SDS011;6123;48.864;9.200;2022-12-07T06:11:29;7.78;;;7.07;;
12118;SDS011;6123;48.864;9.200;2022-12-07T06:14:13;8.18;;;7.40;;
12118;SDS011;6123;48.864;9.200;2022-12-07T06:16:39;8.07;;;7.38;;
12118;SDS011;6123;48.864;9.200;2022-12-07T06:19:05;9.60;;;7.70;;
12118;SDS011;6123;48.864;9.200;2022-12-07T06:21:30;7.63;;;6.95;;
12118;SDS011;6123;48.864;9.200;2022-12-07T06:23:58;8.55;;;7.75;;
12118;SDS011;6123;48.864;9.200;2022-12-07T06:26:24;7.63;;;6.90;;
12118;SDS011;6123;48.864;9.200;2022-12-07T06:28:50;7.40;;;6.65;;
12118;SDS011;6123;48.864;9.200;2022-12-07T06:31:18;6.57;;;5.97;;
12118;SDS011;6123;48.864;9.200;2022-12-07T06:33:43;6.90;;;6.22;;
12118;SDS011;6123;48.864;9.200;2022-12-07T06:36:09;6.60;;;6.00;;
12118;SDS011;6123;48.864;9.200;2022-12-07T06:38:37;7.70;;;6.65;;
12118;SDS011;6123;48.864;9.200;2022-12-07T06:41:03;6.97;;;6.38;;
12118;SDS011;6123;48.864;9.200;2022-12-07T06:43:32;7.32;;;6.63;;
12118;SDS011;6123;48.864;9.200;2022-12-07T06:45:58;6.55;;;5.93;;
12118;SDS011;6123;48.864;9.200;2022-12-07T06:48:23;6.10;;;5.50;;
12118;SDS011;6123;48.864;9.200;2022-12-07T06:50:49;6.68;;;6.07;;
12118;SDS011;6123;48.864;9.200;2022-12-07T06:53:15;6.43;;;5.85;;
12118;SDS011;6123;48.864;9.200;2022-12-07T06:55:41;6.05;;;5.45;;
12118;SDS011;6123;48.864;9.200;2022-12-07T06:58:06;6.80;;;5.68;;
12118;SDS011;6123;48.864;9.200;2022-12-07T07:00:32;6.15;;;5.55;;
12118;SDS011;6123;48.864;9.200;2022-12-07T07:02:59;6.88;;;5.50;;
12118;SDS011;6123;48.864;9.200;2022-12-07T07:05:25;5.07;;;4.57;;
12118;SDS011;6123;48.864;9.200;2022-12-07T07:07:54;5.55;;;5.13;;
12118;SDS011;6123;48.864;9.200;2022-12-07T07:10:19;5.45;;;4.95;;
12118;SDS011;6123;48.864;9.200;2022-12-07T07:12:45;5.60;;;4.78;;
12118;SDS011;6123;48.864;9.200;2022-12-07T07:15:10;5.55;;;5.05;;
12118;SDS011;6123;48.864;9.200;2022-12-07T07:17:37;5.65;;;5.10;;
12118;SDS011;6123;48.864;9.200;2022-12-07T07:20:03;5.68;;;5.18;;
12118;SDS011;6123;48.864;9.200;2022-12-07T07:22:31;5.15;;;4.63;;
12118;SDS011;6123;48.864;9.200;2022-12-07T07:24:59;5.63;;;5.15;;
12118;SDS011;6123;48.864;9.200;2022-12-07T07:27:25;5.65;;;5.15;;
12118;SDS011;6123;48.864;9.200;2022-12-07T07:29:53;5.15;;;4.55;;
12118;SDS011;6123;48.864;9.200;2022-12-07T07:32:18;5.22;;;4.80;;
12118;SDS011;6123;48.864;9.200;2022-12-07T07:34:44;5.55;;;4.90;;
12118;SDS011;6123;48.864;9.200;2022-12-07T07:37:10;5.07;;;4.68;;
12118;SDS011;6123;48.864;9.200;2022-12-07T07:39:37;4.95;;;4.55;;
12118;SDS011;6123;48.864;9.200;2022-12-07T07:42:03;4.82;;;4.43;;
12118;SDS011;6123;48.864;9.200;2022-12-07T07:44:29;4.88;;;4.47;;
12118;SDS011;6123;48.864;9.200;2022-12-07T07:46:55;5.07;;;4.68;;
12118;SDS011;6123;48.864;9.200;2022-12-07T07:49:20;4.82;;;4.43;;
12118;SDS011;6123;48.864;9.200;2022-12-07T07:51:46;5.30;;;4.85;;
12118;SDS011;6123;48.864;9.200;2022-12-07T07:54:11;5.13;;;4.68;;
12118;SDS011;6123;48.864;9.200;2022-12-07T07:56:37;5.47;;;4.97;;
12118;SDS011;6123;48.864;9.200;2022-12-07T07:59:05;4.78;;;4.38;;
12118;SDS011;6123;48.864;9.200;2022-12-07T08:01:33;4.82;;;4.35;;
12118;SDS011;6123;48.864;9.200;2022-12-07T08:03:59;4.70;;;4.40;;
12118;SDS011;6123;48.864;9.200;2022-12-07T08:06:24;4.35;;;3.95;;
12118;SDS011;6123;48.864;9.200;2022-12-07T08:08:53;5.65;;;4.30;;
12118;SDS011;6123;48.864;9.200;2022-12-07T08:11:23;7.13;;;4.82;;
12118;SDS011;6123;48.864;9.200;2022-12-07T08:13:49;4.60;;;4.20;;
12118;SDS011;6123;48.864;9.200;2022-12-07T08:16:15;4.57;;;4.18;;
12118;SDS011;6123;48.864;9.200;2022-12-07T08:18:41;5.00;;;4.60;;
12118;SDS011;6123;48.864;9.200;2022-12-07T08:21:08;4.97;;;4.57;;
12118;SDS011;6123;48.864;9.200;2022-12-07T08:23:36;5.10;;;4.70;;
12118;SDS011;6123;48.864;9.200;2022-12-07T08:26:06;5.65;;;4.68;;
12118;SDS011;6123;48.864;9.200;2022-12-07T08:28:33;5.10;;;4.68;;
12118;SDS011;6123;48.864;9.200;2022-12-07T08:31:00;5.78;;;4.50;;
12118;SDS011;6123;48.864;9.200;2022-12-07T08:33:32;4.78;;;4.38;;
12118;SDS011;6123;48.864;9.200;2022-12-07T08:36:05;4.93;;;4.53;;
12118;SDS011;6123;48.864;9.200;2022-12-07T08:38:36;5.15;;;4.57;;
12118;SDS011;6123;48.864;9.200;2022-12-07T08:41:03;4.97;;;4.50;;
12118;SDS011;6123;48.864;9.200;2022-12-07T08:43:29;4.65;;;4.25;;
12118;SDS011;6123;48.864;9.200;2022-12-07T08:46:03;4.15;;;3.80;;
12118;SDS011;6123;48.864;9.200;2022-12-07T08:48:36;4.72;;;4.32;;
12118;SDS011;6123;48.864;9.200;2022-12-07T08:51:06;4.95;;;4.25;;
12118;SDS011;6123;48.864;9.200;2022-12-07T08:53:35;4.72;;;4.32;;
12118;SDS011;6123;48.864;9.200;2022-12-07T08:56:03;5.97;;;4.35;;
12118;SDS011;6123;48.864;9.200;2022-12-07T08:58:29;4.57;;;4.25;;
12118;SDS011;6123;48.864;9.200;2022-12-07T09:00:57;4.97;;;4.53;;
12118;SDS011;6123;48.864;9.200;2022-12-07T09:03:23;4.88;;;4.28;;
12118;SDS011;6123;48.864;9.200;2022-12-07T09:05:48;4.40;;;3.90;;
12118;SDS011;6123;48.864;9.200;2022-12-07T09:08:18;4.82;;;4.35;;
12118;SDS011;6123;48.864;9.200;2022-12-07T09:10:47;4.75;;;4.35;;
12118;SDS011;6123;48.864;9.200;2022-12-07T09:13:13;6.25;;;4.53;;
12118;SDS011;6123;48.864;9.200;2022-12-07T09:15:39;4.97;;;4.43;;
12118;SDS011;6123;48.864;9.200;2022-12-07T09:18:04;4.53;;;4.13;;
12118;SDS011;6123;48.864;9.200;2022-12-07T09:20:30;4.82;;;4.43;;
12118;SDS011;6123;48.864;9.200;2022-12-07T09:22:56;4.75;;;4.35;;
12118;SDS011;6123;48.864;9.200;2022-12-07T09:25:22;3.95;;;3.65;;
12118;SDS011;6123;48.864;9.200;2022-12-07T09:27:56;5.05;;;4.50;;
12118;SDS011;6123;48.864;9.200;2022-12-07T09:30:23;4.18;;;3.88;;
12118;SDS011;6123;48.864;9.200;2022-12-07T09:32:52;4.53;;;4.03;;
12118;SDS011;6123;48.864;9.200;2022-12-07T09:35:18;3.80;;;3.50;;
12118;SDS011;6123;48.864;9.200;2022-12-07T09:37:44;4.80;;;4.40;;
12118;SDS011;6123;48.864;9.200;2022-12-07T09:40:09;3.72;;;3.42;;
12118;SDS011;6123;48.864;9.200;2022-12-07T09:42:39;4.65;;;3.45;;
12118;SDS011;6123;48.864;9.200;2022-12-07T09:45:15;3.70;;;3.40;;
12118;SDS011;6123;48.864;9.200;2022-12-07T09:47:44;3.65;;;3.25;;
12118;SDS011;6123;48.864;9.200;2022-12-07T09:50:17;3.38;;;3.08;;
12118;SDS011;6123;48.864;9.200;2022-12-07T09:52:49;3.70;;;3.30;;
12118;SDS011;6123;48.864;9.200;2022-12-07T09:55:23;3.65;;;3.17;;
12118;SDS011;6123;48.864;9.200;2022-12-07T09:57:52;3.25;;;2.95;;
12118;SDS011;6123;48.864;9.200;2022-12-07T10:00:19;3.58;;;3.28;;
12118;SDS011;6123;48.864;9.200;2022-12-07T10:07:55;4.13;;;3.60;;
12118;SDS011;6123;48.864;9.200;2022-12-07T10:10:25;3.47;;;3.17;;
12118;SDS011;6123;48.864;9.200;2022-12-07T10:23:39;4.18;;;3.78;;
12118;SDS011;6123;48.864;9.200;2022-12-07T10:28:53;4.97;;;4.55;;
12118;SDS011;6123;48.864;9.200;2022-12-07T10:31:21;4.18;;;3.88;;
12118;SDS011;6123;48.864;9.200;2022-12-07T10:33:48;4.22;;;3.83;;
12118;SDS011;6123;48.864;9.200;2022-12-07T10:41:53;3.65;;;3.35;;
12118;SDS011;6123;48.864;9.200;2022-12-07T10:44:30;4.18;;;3.60;;
12118;SDS011;6123;48.864;9.200;2022-12-07T10:54:58;3.88;;;3.58;;
12118;SDS011;6123;48.864;9.200;2022-12-07T11:05:13;4.03;;;3.67;;
12118;SDS011;6123;48.864;9.200;2022-12-07T11:13:24;4.30;;;3.90;;
12118;SDS011;6123;48.864;9.200;2022-12-07T11:21:43;4.25;;;3.90;;
12118;SDS011;6123;48.864;9.200;2022-12-07T11:29:47;4.72;;;4.32;;
12118;SDS011;6123;48.864;9.200;2022-12-07T11:32:22;4.53;;;3.95;;
12118;SDS011;6123;48.864;9.200;2022-12-07T11:35:17;5.40;;;5.00;;
12118;SDS011;6123;48.864;9.200;2022-12-07T11:38:11;6.20;;;5.70;;
12118;SDS011;6123;48.864;9.200;2022-12-07T11:40:49;5.85;;;5.20;;
12118;SDS011;6123;48.864;9.200;2022-12-07T11:43:28;5.95;;;5.45;;
12118;SDS011;6123;48.864;9.200;2022-12-07T11:45:59;5.78;;;5.13;;
12118;SDS011;6123;48.864;9.200;2022-12-07T11:48:36;5.90;;;5.30;;
12118;SDS011;6123;48.864;9.200;2022-12-07T11:51:07;5.63;;;5.15;;
12118;SDS011;6123;48.864;9.200;2022-12-07T11:53:41;6.10;;;5.57;;
12118;SDS011;6123;48.864;9.200;2022-12-07T11:56:15;6.90;;;6.20;;
12118;SDS011;6123;48.864;9.200;2022-12-07T12:04:06;6.93;;;6.32;;
12118;SDS011;6123;48.864;9.200;2022-12-07T12:06:42;6.78;;;6.10;;
12118;SDS011;6123;48.864;9.200;2022-12-07T12:12:00;6.88;;;6.18;;
12118;SDS011;6123;48.864;9.200;2022-12-07T12:17:03;6.35;;;5.82;;
12118;SDS011;6123;48.864;9.200;2022-12-07T12:22:38;6.35;;;5.75;;
12118;SDS011;6123;48.864;9.200;2022-12-07T12:25:07;6.70;;;6.10;;
12118;SDS011;6123;48.864;9.200;2022-12-07T12:28:03;6.00;;;5.50;;
12118;SDS011;6123;48.864;9.200;2022-12-07T12:30:37;6.32;;;5.68;;
12118;SDS011;6123;48.864;9.200;2022-12-07T12:33:50;6.05;;;5.55;;
12118;SDS011;6123;48.864;9.200;2022-12-07T12:46:55;6.30;;;5.80;;
12118;SDS011;6123;48.864;9.200;2022-12-07T12:54:24;6.82;;;6.22;;
12118;SDS011;6123;48.864;9.200;2022-12-07T12:59:38;8.65;;;6.80;;
12118;SDS011;6123;48.864;9.200;2022-12-07T13:12:58;6.80;;;6.20;;
12118;SDS011;6123;48.864;9.200;2022-12-07T13:15:31;8.10;;;7.30;;
12118;SDS011;6123;48.864;9.200;2022-12-07T13:26:18;7.63;;;6.93;;
12118;SDS011;6123;48.864;9.200;2022-12-07T13:28:51;7.25;;;6.55;;
12118;SDS011;6123;48.864;9.200;2022-12-07T13:31:42;8.20;;;7.50;;
12118;SDS011;6123;48.864;9.200;2022-12-07T13:37:01;8.55;;;7.82;;
12118;SDS011;6123;48.864;9.200;2022-12-07T13:39:27;8.48;;;7.63;;
12118;SDS011;6123;48.864;9.200;2022-12-07T13:41:57;9.05;;;8.25;;
12118;SDS011;6123;48.864;9.200;2022-12-07T13:44:25;9.25;;;8.32;;
12118;SDS011;6123;48.864;9.200;2022-12-07T13:49:55;9.30;;;8.40;;
12118;SDS011;6123;48.864;9.200;2022-12-07T13:52:24;8.23;;;7.43;;
12118;SDS011;6123;48.864;9.200;2022-12-07T13:54:58;9.23;;;8.40;;
12118;SDS011;6123;48.864;9.200;2022-12-07T13:57:30;8.52;;;7.63;;
12118;SDS011;6123;48.864;9.200;2022-12-07T13:59:59;8.82;;;7.93;;
12118;SDS011;6123;48.864;9.200;2022-12-07T14:02:27;8.63;;;7.82;;
12118;SDS011;6123;48.864;9.200;2022-12-07T14:07:44;8.48;;;7.65;;
12118;SDS011;6123;48.864;9.200;2022-12-07T14:10:31;9.05;;;8.23;;
12118;SDS011;6123;48.864;9.200;2022-12-07T14:12:59;8.85;;;7.90;;
12118;SDS011;6123;48.864;9.200;2022-12-07T14:15:32;8.70;;;7.90;;
12118;SDS011;6123;48.864;9.200;2022-12-07T14:18:00;8.57;;;7.78;;
12118;SDS011;6123;48.864;9.200;2022-12-07T14:20:31;8.88;;;7.97;;
12118;SDS011;6123;48.864;9.200;2022-12-07T14:23:00;9.18;;;8.25;;
12118;SDS011;6123;48.864;9.200;2022-12-07T14:25:34;9.32;;;8.52;;
12118;SDS011;6123;48.864;9.200;2022-12-07T14:28:33;8.80;;;8.00;;
12118;SDS011;6123;48.864;9.200;2022-12-07T14:31:00;9.77;;;8.85;;
12118;SDS011;6123;48.864;9.200;2022-12-07T14:33:30;10.00;;;9.10;;
12118;SDS011;6123;48.864;9.200;2022-12-07T14:35:58;10.18;;;9.18;;
12118;SDS011;6123;48.864;9.200;2022-12-07T14:38:26;9.93;;;9.02;;
12118;SDS011;6123;48.864;9.200;2022-12-07T14:40:52;10.60;;;9.27;;
12118;SDS011;6123;48.864;9.200;2022-12-07T14:43:19;10.02;;;9.02;;
12118;SDS011;6123;48.864;9.200;2022-12-07T14:45:45;9.68;;;8.77;;
12118;SDS011;6123;48.864;9.200;2022-12-07T14:48:13;10.13;;;8.70;;
12118;SDS011;6123;48.864;9.200;2022-12-07T14:50:45;9.38;;;8.43;;
12118;SDS011;6123;48.864;9.200;2022-12-07T14:53:16;10.82;;;9.32;;
12118;SDS011;6123;48.864;9.200;2022-12-07T14:55:43;9.57;;;8.60;;
12118;SDS011;6123;48.864;9.200;2022-12-07T14:58:16;9.75;;;8.85;;
12118;SDS011;6123;48.864;9.200;2022-12-07T15:00:43;10.35;;;9.23;;
12118;SDS011;6123;48.864;9.200;2022-12-07T15:03:11;9.35;;;8.30;;
12118;SDS011;6123;48.864;9.200;2022-12-07T15:05:38;8.48;;;7.68;;
12118;SDS011;6123;48.864;9.200;2022-12-07T15:08:04;7.78;;;7.07;;
12118;SDS011;6123;48.864;9.200;2022-12-07T15:10:31;8.38;;;7.57;;
12118;SDS011;6123;48.864;9.200;2022-12-07T15:12:58;8.23;;;7.50;;
12118;SDS011;6123;48.864;9.200;2022-12-07T15:15:45;8.95;;;8.05;;
12118;SDS011;6123;48.864;9.200;2022-12-07T15:18:11;9.35;;;8.38;;
12118;SDS011;6123;48.864;9.200;2022-12-07T15:20:37;9.90;;;8.90;;
12118;SDS011;6123;48.864;9.200;2022-12-07T15:23:03;9.82;;;8.88;;
12118;SDS011;6123;48.864;9.200;2022-12-07T15:25:29;9.82;;;8.82;;
12118;SDS011;6123;48.864;9.200;2022-12-07T15:27:55;9.80;;;8.90;;
12118;SDS011;6123;48.864;9.200;2022-12-07T15:30:20;9.95;;;8.95;;
12118;SDS011;6123;48.864;9.200;2022-12-07T15:32:50;11.37;;;10.27;;
12118;SDS011;6123;48.864;9.200;2022-12-07T15:35:16;9.30;;;8.52;;
12118;SDS011;6123;48.864;9.200;2022-12-07T15:37:42;10.25;;;9.25;;
12118;SDS011;6123;48.864;9.200;2022-12-07T15:40:07;10.48;;;9.25;;
12118;SDS011;6123;48.864;9.200;2022-12-07T15:42:35;11.32;;;10.23;;
12118;SDS011;6123;48.864;9.200;2022-12-07T15:45:01;10.02;;;9.02;;
12118;SDS011;6123;48.864;9.200;2022-12-07T15:47:31;10.18;;;9.27;;
12118;SDS011;6123;48.864;9.200;2022-12-07T15:49:58;10.55;;;9.55;;
12118;SDS011;6123;48.864;9.200;2022-12-07T15:52:29;10.75;;;9.65;;
12118;SDS011;6123;48.864;9.200;2022-12-07T15:54:54;9.77;;;8.75;;
12118;SDS011;6123;48.864;9.200;2022-12-07T15:57:20;10.05;;;9.05;;
12118;SDS011;6123;48.864;9.200;2022-12-07T15:59:46;10.00;;;8.75;;
12118;SDS011;6123;48.864;9.200;2022-12-07T16:02:12;10.80;;;9.65;;
12118;SDS011;6123;48.864;9.200;2022-12-07T16:04:38;10.02;;;9.02;;
12118;SDS011;6123;48.864;9.200;2022-12-07T16:07:03;10.07;;;9.07;;
12118;SDS011;6123;48.864;9.200;2022-12-07T16:09:32;9.70;;;8.70;;
12118;SDS011;6123;48.864;9.200;2022-12-07T16:12:00;11.60;;;10.50;;
12118;SDS011;6123;48.864;9.200;2022-12-07T16:14:25;10.38;;;9.38;;
12118;SDS011;6123;48.864;9.200;2022-12-07T16:16:51;11.60;;;10.40;;
12118;SDS011;6123;48.864;9.200;2022-12-07T16:19:17;10.73;;;9.63;;
12118;SDS011;6123;48.864;9.200;2022-12-07T16:21:43;10.10;;;9.20;;
12118;SDS011;6123;48.864;9.200;2022-12-07T16:24:08;10.80;;;9.70;;
12118;SDS011;6123;48.864;9.200;2022-12-07T16:26:35;11.13;;;9.98;;
12118;SDS011;6123;48.864;9.200;2022-12-07T16:29:01;10.48;;;9.23;;
12118;SDS011;6123;48.864;9.200;2022-12-07T16:31:27;11.85;;;10.23;;
12118;SDS011;6123;48.864;9.200;2022-12-07T16:33:53;10.80;;;9.73;;
12118;SDS011;6123;48.864;9.200;2022-12-07T16:36:23;10.02;;;9.02;;
12118;SDS011;6123;48.864;9.200;2022-12-07T16:38:51;9.50;;;8.50;;
12118;SDS011;6123;48.864;9.200;2022-12-07T16:41:17;9.05;;;8.15;;
12118;SDS011;6123;48.864;9.200;2022-12-07T16:43:43;8.70;;;7.90;;
12118;SDS011;6123;48.864;9.200;2022-12-07T16:46:08;8.95;;;8.02;;
12118;SDS011;6123;48.864;9.200;2022-12-07T16:48:35;9.50;;;8.52;;
12118;SDS011;6123;48.864;9.200;2022-12-07T16:51:05;9.82;;;8.93;;
12118;SDS011;6123;48.864;9.200;2022-12-07T16:53:33;9.43;;;8.15;;
12118;SDS011;6123;48.864;9.200;2022-12-07T16:56:00;9.48;;;8.48;;
12118;SDS011;6123;48.864;9.200;2022-12-07T16:58:26;8.80;;;8.00;;
12118;SDS011;6123;48.864;9.200;2022-12-07T17:00:52;8.77;;;7.97;;
12118;SDS011;6123;48.864;9.200;2022-12-07T17:03:20;8.52;;;7.72;;
12118;SDS011;6123;48.864;9.200;2022-12-07T17:05:46;8.80;;;7.93;;
12118;SDS011;6123;48.864;9.200;2022-12-07T17:08:14;8.70;;;7.90;;
12118;SDS011;6123;48.864;9.200;2022-12-07T17:10:42;8.75;;;7.68;;
12118;SDS011;6123;48.864;9.200;2022-12-07T17:13:09;8.80;;;7.95;;
12118;SDS011;6123;48.864;9.200;2022-12-07T17:16:04;8.50;;;7.70;;
12118;SDS011;6123;48.864;9.200;2022-12-07T17:18:31;7.57;;;6.88;;
12118;SDS011;6123;48.864;9.200;2022-12-07T17:21:03;7.78;;;7.07;;
12118;SDS011;6123;48.864;9.200;2022-12-07T17:23:30;8.23;;;7.28;;
12118;SDS011;6123;48.864;9.200;2022-12-07T17:26:03;8.27;;;7.45;;
12118;SDS011;6123;48.864;9.200;2022-12-07T17:28:35;9.00;;;8.10;;
12118;SDS011;6123;48.864;9.200;2022-12-07T17:31:03;8.32;;;7.53;;
12118;SDS011;6123;48.864;9.200;2022-12-07T17:33:31;8.82;;;7.93;;
12118;SDS011;6123;48.864;9.200;2022-12-07T17:35:57;10.60;;;9.60;;
12118;SDS011;6123;48.864;9.200;2022-12-07T17:38:23;7.68;;;6.97;;
12118;SDS011;6123;48.864;9.200;2022-12-07T17:40:49;8.27;;;7.47;;
12118;SDS011;6123;48.864;9.200;2022-12-07T17:43:15;8.02;;;7.25;;
12118;SDS011;6123;48.864;9.200;2022-12-07T17:45:40;7.18;;;6.50;;